Observations for AMENDOLA IT-AFB, Italy (LIBA)

LIBA 221255Z 24004KT 8000 -RA SCT010 BKN050 07/05 Q1002 RMK OVC VIS MIN 8000 WIND THR11 24005KT WIND THR29 /////KT BLU  
LIBA 221155Z 36007KT 3500 RA BR SCT007 SCT015TCU BKN050 06/04 Q1003 RMK OVC VIS MIN 3500 WIND THR11 02007KT WIND THR29 /////KT YLO  
LIBA 221055Z 28008KT 9999 SCT007 SCT025 BKN050 08/06 Q1004 RMK OVC VIS MIN 7000NW WIND THR11 28009KT WIND THR29 /////KT WHT 
LIBA 220955Z 23005KT 9999 FEW015 SCT030 BKN060 08/06 Q1005 RMK BKN VIS MIN 7000NW WIND THR11 23004KT WIND THR29 /////KT WHT 
LIBA 220855Z 28005KT 9999 FEW015 SCT030 07/05 Q1005 RMK BKN BKN070 VIS MIN 7000N WIND THR11 28005KT WIND THR29 /////KT WHT  
LIBA 220755Z 29012KT 9999 FEW015 SCT030 BKN060 06/04 Q1006 RMK OVC VIS MIN 7000N WIND THR11 29013KT WIND THR29 /////KT WHT  
LIBA 220655Z 29006KT 7000 -RA FEW015 SCT025 BKN060 06/04 Q1005 RMK OVC VIS MIN 7000 WIND THR11 29006KT WIND THR29 /////KT WHT   
LIBA 220555Z 28007KT 7000 -RA FEW015 SCT020 BKN040 06/04 Q1006 RMK OVC VIS MIN 7000 WIND THR11 29007KT WIND THR29 /////KT WHT   
LIBA 220455Z 30009KT 7000 -RA FEW015 SCT020 BKN040 06/04 Q1006 RMK OVC VIS MIN 7000 WIND THR11 30006KT WIND THR29 /////KT WHT   
LIBA 220355Z 26004KT 8000 SCT020 BKN040 06/05 Q1007 RMK OVC VIS MIN 8000 WIND THR11 28007KT WIND THR29 /////KT BLU  
LIBA 220255Z 28005KT 8000 SCT020 BKN040 06/04 Q1007 RMK OVC VIS MIN 8000 WIND THR11 28007KT WIND THR29 /////KT BLU  
LIBA 220155Z 29007KT 8000 SCT020 BKN040 06/04 Q1008 RMK OVC VIS MIN 8000 WIND THR11 28007KT WIND THR29 /////KT BLU  
LIBA 220055Z 29005KT 8000 -DZ SCT020 BKN040 07/05 Q1009 RMK OVC VIS MIN 8000 WIND THR11 28005KT WIND THR29 /////KT BLU  
LIBA 212355Z 30006KT 8000 -RA SCT020 BKN040 07/05 Q1009 RMK OVC VIS MIN 8000 WIND THR11 29006KT WIND THR29 /////KT BLU  
LIBA 212255Z 31007KT 8000 -RA SCT020 BKN040 07/05 Q1010 RMK OVC VIS MIN 8000 WIND THR11 31006KT WIND THR29 /////KT BLU  
LIBA 212155Z 29008KT 8000 -RA SCT020 BKN040 07/05 Q1010 RMK OVC VIS MIN 8000 WIND THR11 28008KT WIND THR29 /////KT BLU  
LIBA 212055Z 29007KT 8000 SCT020 BKN040 07/05 Q1010 RMK OVC VIS MIN 8000 WIND THR11 29006KT WIND THR29 /////KT BLU  
LIBA 211955Z 29005KT 9999 SCT020 BKN040 07/05 Q1010 RMK OVC VIS MIN 9999 WIND THR11 29006KT WIND THR29 /////KT BLU  
LIBA 211755Z 29006KT 8000 BKN023 08/07 Q1011 RMK OVC BKN080 VIS MIN 8000 WIND THR11 29006KT WIND THR29 /////KT WHT  
LIBA 211655Z 29006KT 8000 BKN030 08/07 Q1011 RMK OVC BKN080 VIS MIN 8000 WIND THR11 29005KT WIND THR29 /////KT BLU  
LIBA 211555Z 04002KT 8000 FEW015 SCT060 09/08 Q1011 RMK OVC BKN100 VIS MIN 8000 WIND THR11 VRB01KT WIND THR29 /////KT BLU   
LIBA 211455Z 29004KT 8000 FEW030 SCT060 09/08 Q1011 RMK OVC BKN080 VIS MIN 8000 WIND THR11 27004KT WIND THR29 /////KT BLU   
LIBA 211355Z 31004KT 8000 FEW030 BKN060 10/08 Q1012 RMK BKN VIS MIN 8000 WIND THR11 30005KT WIND THR29 /////KT BLU  
LIBA 211255Z 31008KT 8000 FEW030 BKN060 10/07 Q1012 RMK BKN VIS MIN 8000 WIND THR11 30007KT WIND THR29 /////KT BLU